Terminal Aerodrome Forecast
Issued by NWS Dodge City, KS

Home | Current Version | Previous Version | Graphics & Text | Print | Product List | Glossary Off
Versions: 1 2 3 4 5 6 7 8 9 10 11 12 13 14 15 16 17 18 19 20 21 22 23 24 25 26 27 28 29 30 31 32 33 34 35 36 37 38

994
FTUS43 KDDC 281720
TAFDDC
TAF
KDDC 281720Z 2818/2918 14010KT P6SM SKC
     FM281900 13010G20KT P6SM BKN090
     FM290000 09010KT P6SM OVC090
     FM290200 04010KT P6SM VCTS OVC040CB
      TEMPO 2902/2906 VRB20G45KT TSRA
     FM290600 09006KT P6SM VCSH BKN040=

USA.gov is the U.S. government's official web portal to all federal, state and local government web resources and services.